Tuesday, January 16, 2018, 6:51 AM EST
Back to Local

KFRG, Farmingdale Republic Airport

Location: Farmingdale, NY, United States Lat: 40.733
Local Time: 6:51 AM EST (11:51 GMT) Lon: -73.417
Time Zone: US/Eastern Elev: 82 ft

Show me the last for .
Show Coded

Time T Td Feel RH Dir Speed Gust Alt SLP Vis Weather Sky Remarks
2018-01-16 05:53 26 22 22 84 340° 3 - 30.50 30.50 10 OVC008 None
2018-01-16 04:53 25 21 - 84 - Calm - 30.51 30.51 10 OVC008 None
2018-01-16 03:53 24 21 20 87 20° 3 - 30.50 30.50 10 OVC008 None
2018-01-16 02:53 24 21 18 87 10° 5 - 30.51 30.51 10 OVC009 None
2018-01-16 01:53 24 21 - 87 - Calm - 30.50 30.50 10 OVC009 None
2018-01-16 00:53 24 20 - 83 - Calm - 30.49 30.50 10 OVC010 6-hr Min Temp (1am): 19.9°F
6-hr Max Temp (1am): 24.1°F
2018-01-15 23:53 22 17 - 81 - Calm - 30.50 30.50 10 OVC012 24-hr Min Temp (12am): 17.1°F
24-hr Max Temp (12am): 27.0°F
2018-01-15 23:18 21 16 16 80 50° 3 - 30.51 - 10 BKN013 None
2018-01-15 22:53 21 15 16 77 30° 3 - 30.51 30.51 10 CLR None
2018-01-15 21:53 21 15 16 77 40° 3 - 30.51 30.51 10 CLR None
2018-01-15 20:53 22 15 17 74 60° 3 - 30.52 30.53 10 CLR None
2018-01-15 19:53 22 15 14 74 30° 6 - 30.55 30.55 10 CLR None
2018-01-15 18:53 23 16 13 74 50° 9 - 30.53 30.53 10 CLR 6-hr Min Temp (7pm): 23.0°F
6-hr Max Temp (7pm): 27.0°F
2018-01-15 18:07 24 16 14 70 40° 9 - 30.55 - 10 SCT023 BKN036 None
2018-01-15 17:53 24 16 14 70 40° 9 - 30.55 30.55 10 BKN023 OVC037 None
2018-01-15 17:34 24 16 12 70 40° 13 - 30.55 - 10 BKN024 OVC035 None
2018-01-15 16:53 25 16 14 68 50° 13 - 30.55 30.55 10 OVC033 None
2018-01-15 15:53 26 17 14 68 40° 14 - 30.54 30.54 10 OVC032 None
2018-01-15 14:53 26 17 14 68 50° 15 - 30.53 30.53 10 OVC034 None
2018-01-15 14:10 26 17 14 68 30° 15 - 30.54 - 10 OVC030 None
2018-01-15 13:53 26 17 16 68 40° 12 - 30.55 30.55 10 OVC029 None
2018-01-15 12:53 25 16 12 68 30° 16 - 30.57 30.57 10 OVC029 6-hr Min Temp (1pm): 17.1°F
6-hr Max Temp (1pm): 25.0°F
2018-01-15 11:53 24 16 11 70 20° 15 - 30.60 30.60 10 OVC029 None
2018-01-15 11:17 24 15 12 68 30° 13 - 30.64 - 10 OVC028 None
2018-01-15 10:53 24 15 13 68 30° 12 - 30.65 30.65 10 OVC031 None
2018-01-15 09:53 23 15 12 71 40° 10 - 30.67 30.67 10 OVC031 None
2018-01-15 08:53 21 13 9 70 40° 13 - 30.66 30.66 10 OVC031 None
2018-01-15 07:53 18 12 7 77 30° 9 - 30.67 30.67 10 SCT031 None
2018-01-15 06:53 17 10 7 73 30° 8 - 30.68 30.68 10 CLR 6-hr Min Temp (7am): 17.1°F
6-hr Max Temp (7am): 19.9°F

Support USWX by starting your Amazon purchase here.